createdAt,value
2018-04-22T00:01:58.117Z,12.80
2018-04-22T00:04:25.615Z,12.32
2018-04-22T00:06:53.111Z,12.30
2018-04-22T00:09:20.674Z,12.57
2018-04-22T00:11:48.264Z,12.63
2018-04-22T00:14:15.746Z,13.25
2018-04-22T00:16:43.305Z,12.90
2018-04-22T00:19:11.101Z,13.98
2018-04-22T00:21:38.637Z,14.40
2018-04-22T00:24:06.175Z,13.20
2018-04-22T00:26:34.430Z,13.00
2018-04-22T00:29:02.153Z,13.35
2018-04-22T00:31:29.700Z,13.37
2018-04-22T00:33:59.889Z,12.98
2018-04-22T00:36:27.376Z,13.70
2018-04-22T00:38:54.894Z,13.82
2018-04-22T00:41:23.034Z,14.33
2018-04-22T00:43:50.620Z,15.20
2018-04-22T00:46:18.091Z,13.88
2018-04-22T00:48:45.603Z,14.15
2018-04-22T00:51:13.110Z,14.63
2018-04-22T00:53:52.595Z,14.50
2018-04-22T00:56:20.854Z,14.73
2018-04-22T00:58:48.527Z,14.73
2018-04-22T01:01:16.024Z,16.52
2018-04-22T01:03:44.272Z,16.42
2018-04-22T01:06:11.780Z,16.00
2018-04-22T01:08:40.040Z,14.63
2018-04-22T01:11:07.575Z,15.95
2018-04-22T01:13:35.103Z,15.02
2018-04-22T01:16:03.409Z,14.75
2018-04-22T01:18:31.641Z,14.73
2018-04-22T01:20:59.132Z,14.38
2018-04-22T01:23:27.372Z,15.75
2018-04-22T01:26:00.997Z,14.13
2018-04-22T01:28:28.490Z,14.52
2018-04-22T01:30:55.964Z,13.52
2018-04-22T01:33:23.503Z,13.50
2018-04-22T01:35:50.983Z,13.62
2018-04-22T01:38:18.655Z,13.30
2018-04-22T01:40:46.159Z,13.20
2018-04-22T01:43:13.648Z,13.45
2018-04-22T01:45:41.935Z,13.87
2018-04-22T01:48:10.204Z,12.95
2018-04-22T01:50:37.699Z,13.93
2018-04-22T01:53:09.584Z,13.40
2018-04-22T01:55:37.820Z,13.18
2018-04-22T01:58:05.303Z,13.55
2018-04-22T02:00:32.817Z,12.30
2018-04-22T02:03:00.352Z,13.18
2018-04-22T02:05:39.379Z,12.57
2018-04-22T02:08:06.856Z,12.50
2018-04-22T02:10:34.355Z,12.60
2018-04-22T02:13:02.767Z,12.73
2018-04-22T02:15:30.304Z,13.55
2018-04-22T02:17:58.540Z,12.95
2018-04-22T02:20:26.052Z,13.55
2018-04-22T02:22:54.424Z,14.10
2018-04-22T02:25:23.932Z,14.30
2018-04-22T02:27:51.426Z,14.13
2018-04-22T02:30:18.910Z,13.75
2018-04-22T02:32:47.150Z,14.13
2018-04-22T02:35:14.685Z,13.77
2018-04-22T02:37:42.167Z,13.97
2018-04-22T02:40:11.345Z,13.75
2018-04-22T02:42:38.861Z,13.23
2018-04-22T02:45:06.733Z,13.18
2018-04-22T02:47:34.255Z,12.23
2018-04-22T02:50:02.577Z,13.00
2018-04-22T02:52:32.047Z,12.63
2018-04-22T02:54:59.563Z,12.88
2018-04-22T02:57:27.424Z,12.68
2018-04-22T02:59:54.930Z,12.63
2018-04-22T03:02:22.433Z,12.10
2018-04-22T03:04:56.835Z,12.40
2018-04-22T03:07:26.086Z,11.77
2018-04-22T03:09:53.564Z,12.45
2018-04-22T03:12:22.177Z,13.13
2018-04-22T03:14:49.662Z,12.93
2018-04-22T03:17:17.169Z,12.48
2018-04-22T03:19:44.651Z,12.85
2018-04-22T03:22:12.183Z,12.27
2018-04-22T03:24:42.122Z,12.37
2018-04-22T03:27:09.625Z,12.37
2018-04-22T03:29:41.366Z,12.45
2018-04-22T03:32:08.896Z,13.30
2018-04-22T03:34:36.404Z,14.07
2018-04-22T03:37:03.911Z,12.32
2018-04-22T03:39:35.198Z,12.63
2018-04-22T03:42:10.952Z,11.88
2018-04-22T03:44:38.573Z,12.37
2018-04-22T03:47:07.036Z,12.00
2018-04-22T03:49:35.793Z,12.20
2018-04-22T03:52:06.158Z,12.15
2018-04-22T03:54:37.691Z,12.25
2018-04-22T03:57:05.227Z,12.60
2018-04-22T03:59:35.522Z,12.05
2018-04-22T04:02:06.696Z,11.30
2018-04-22T04:04:37.365Z,12.68
2018-04-22T04:07:06.837Z,13.13
2018-04-22T04:09:36.136Z,12.75
2018-04-22T04:12:05.140Z,12.10
2018-04-22T04:14:34.448Z,11.30
2018-04-22T04:17:09.535Z,12.07
2018-04-22T04:19:49.791Z,12.50
2018-04-22T04:22:37.600Z,12.70
2018-04-22T04:28:22.054Z,13.13
2018-04-22T04:30:49.640Z,13.30
2018-04-22T04:33:18.726Z,13.13
2018-04-22T04:35:47.883Z,13.43
2018-04-22T04:38:15.395Z,14.40
2018-04-22T04:40:43.019Z,13.43
2018-04-22T04:43:12.703Z,12.02
2018-04-22T04:45:45.402Z,12.90
2018-04-22T04:51:11.740Z,13.40
2018-04-22T04:53:49.155Z,13.45
2018-04-22T04:56:19.370Z,14.75
2018-04-22T04:58:49.299Z,14.80
2018-04-22T05:01:19.079Z,12.50
2018-04-22T05:03:50.380Z,13.35
2018-04-22T05:06:18.796Z,13.77
2018-04-22T05:08:49.500Z,13.00
2018-04-22T05:11:18.151Z,13.73
2018-04-22T05:13:48.448Z,14.40
2018-04-22T05:16:19.936Z,14.15
2018-04-22T05:18:49.244Z,13.85
2018-04-22T05:21:18.985Z,15.50
2018-04-22T05:23:49.550Z,15.43
2018-04-22T05:26:17.032Z,15.93
2018-04-22T05:31:49.318Z,16.42
2018-04-22T05:34:16.779Z,15.48
2018-04-22T05:36:44.308Z,16.30
2018-04-22T05:39:11.914Z,15.82
2018-04-22T05:41:44.669Z,16.70
2018-04-22T05:44:12.464Z,15.88
2018-04-22T05:46:46.343Z,16.48
2018-04-22T05:49:13.927Z,15.85
2018-04-22T05:51:41.683Z,15.98
2018-04-22T05:54:10.435Z,16.25
2018-04-22T05:56:40.549Z,16.52
2018-04-22T05:59:18.870Z,15.73
2018-04-22T06:01:46.387Z,16.83
2018-04-22T06:04:25.970Z,16.52
2018-04-22T06:07:05.031Z,16.08
2018-04-22T06:09:32.600Z,16.25
2018-04-22T06:12:18.249Z,16.48
2018-04-22T06:14:49.561Z,17.75
2018-04-22T06:18:02.412Z,17.48
2018-04-22T06:20:30.770Z,17.77
2018-04-22T06:23:06.017Z,17.62
2018-04-22T06:31:20.475Z,15.95
2018-04-22T06:33:51.277Z,16.58
2018-04-22T06:36:27.124Z,15.90
2018-04-22T06:38:54.994Z,15.98
2018-04-22T06:41:22.730Z,16.50
2018-04-22T06:58:52.955Z,16.23
2018-04-22T07:01:20.508Z,16.60
2018-04-22T07:09:51.366Z,16.65
2018-04-22T07:12:20.780Z,14.25
2018-04-22T07:18:22.149Z,15.52
2018-04-22T07:20:49.765Z,16.40
2018-04-22T07:23:21.415Z,15.85
2018-04-22T07:34:50.602Z,15.35
2018-04-22T07:40:21.510Z,14.15
2018-04-22T07:42:49.959Z,14.87
2018-04-22T07:45:19.548Z,14.55
2018-04-22T07:47:50.772Z,14.32
2018-04-22T07:50:25.267Z,15.38
2018-04-22T07:52:52.868Z,14.02
2018-04-22T07:55:20.564Z,14.35
2018-04-22T08:02:50.812Z,14.18
2018-04-22T08:05:20.683Z,13.82
2018-04-22T08:07:50.051Z,13.27
2018-04-22T08:10:18.775Z,14.02
2018-04-22T08:12:52.018Z,14.13
2018-04-22T08:15:22.824Z,13.67
2018-04-22T08:17:51.577Z,14.38
2018-04-22T08:20:20.452Z,13.57
2018-04-22T08:22:52.108Z,14.07
2018-04-22T08:25:20.647Z,13.52
2018-04-22T08:27:54.159Z,13.20
2018-04-22T08:30:35.733Z,13.50
2018-04-22T08:33:19.210Z,13.50
2018-04-22T08:35:50.426Z,12.20
2018-04-22T08:41:10.078Z,12.00
2018-04-22T08:43:53.362Z,11.90
2018-04-22T08:46:31.354Z,11.07
2018-04-22T08:49:00.043Z,10.60
2018-04-22T08:51:27.619Z,11.23
2018-04-22T08:53:57.265Z,10.68
2018-04-22T08:59:24.357Z,10.68
2018-04-22T09:04:50.421Z,10.88
2018-04-22T09:07:23.558Z,9.02
2018-04-22T09:09:51.886Z,9.68
2018-04-22T09:12:19.634Z,8.48
2018-04-22T09:14:53.968Z,8.88
2018-04-22T09:24:53.658Z,8.23
2018-04-22T09:27:22.512Z,8.95
2018-04-22T09:29:50.063Z,9.02
2018-04-22T09:32:22.077Z,8.95
2018-04-22T09:34:53.720Z,7.95
2018-04-22T09:37:21.270Z,9.45
2018-04-22T09:39:51.606Z,10.38
2018-04-22T09:42:19.924Z,9.07
2018-04-22T09:44:50.536Z,9.07
2018-04-22T09:50:21.974Z,8.68
2018-04-22T09:52:49.547Z,8.77
2018-04-22T09:55:20.786Z,8.88
2018-04-22T09:57:49.768Z,7.97
2018-04-22T10:28:22.578Z,5.43
2018-04-22T10:30:50.130Z,5.65
2018-04-22T10:33:17.682Z,5.17
2018-04-22T10:38:49.284Z,5.30
2018-04-22T10:41:20.676Z,5.60
2018-04-22T10:43:49.302Z,5.20
2018-04-22T10:46:20.532Z,4.90
2018-04-22T10:48:51.211Z,5.22
2018-04-22T10:51:19.940Z,5.37
2018-04-22T10:53:50.290Z,4.85
2018-04-22T10:56:23.762Z,4.82
2018-04-22T10:58:52.268Z,4.57
2018-04-22T11:01:19.821Z,4.85
2018-04-22T11:03:50.359Z,4.78
2018-04-22T11:06:21.125Z,4.30
2018-04-22T11:08:49.748Z,4.43
2018-04-22T11:11:21.334Z,4.50
2018-04-22T11:13:49.702Z,4.65
2018-04-22T11:16:22.570Z,5.43
2018-04-22T11:18:50.122Z,4.20
2018-04-22T11:21:17.939Z,4.70
2018-04-22T11:23:51.680Z,4.90
2018-04-22T11:26:19.953Z,4.82
2018-04-22T11:28:49.819Z,4.40
2018-04-22T11:31:20.486Z,4.18
2018-04-22T11:33:51.115Z,4.72
2018-04-22T11:36:19.802Z,4.20
2018-04-22T11:38:50.691Z,4.10
2018-04-22T11:41:19.830Z,3.90
2018-04-22T11:43:48.256Z,3.70
2018-04-22T12:11:51.764Z,3.80
2018-04-22T12:14:43.435Z,3.30
2018-04-22T12:17:20.898Z,3.60
2018-04-22T12:19:50.623Z,3.60
2018-04-22T12:22:19.786Z,3.80
2018-04-22T12:24:48.083Z,3.70
2018-04-22T12:27:15.696Z,3.50
2018-04-22T12:29:43.328Z,3.20
2018-04-22T12:32:11.289Z,3.10
2018-04-22T12:34:52.837Z,3.20
2018-04-22T12:37:20.511Z,3.30
2018-04-22T12:42:50.909Z,3.28
2018-04-22T12:45:20.326Z,2.87
2018-04-22T12:47:49.610Z,3.13
2018-04-22T12:50:21.294Z,3.62
2018-04-22T12:52:51.042Z,3.20
2018-04-22T12:55:19.560Z,3.35
2018-04-22T12:57:50.470Z,3.20
2018-04-22T13:00:19.823Z,2.92
2018-04-22T13:02:47.618Z,2.83
2018-04-22T13:11:44.590Z,2.87
2018-04-22T13:14:12.117Z,3.10
2018-04-22T13:16:39.566Z,3.05
2018-04-22T13:24:50.550Z,2.97
2018-04-22T13:27:21.197Z,2.90
2018-04-22T13:29:48.692Z,2.30
2018-04-22T13:32:19.602Z,2.70
2018-04-22T13:34:51.340Z,3.30
2018-04-22T13:37:30.904Z,2.92
2018-04-22T14:28:19.703Z,3.10
2018-04-22T14:30:48.969Z,3.35
2018-04-22T14:33:19.739Z,4.85
2018-04-22T14:35:49.572Z,2.97
2018-04-22T14:38:19.317Z,2.80
2018-04-22T14:40:48.710Z,3.07
2018-04-22T14:43:18.979Z,2.73
2018-04-22T14:48:48.288Z,2.92
2018-04-22T14:51:19.118Z,2.80
2018-04-22T14:53:49.998Z,2.92
2018-04-22T14:56:21.095Z,2.85
2018-04-22T14:58:49.712Z,3.03
2018-04-22T15:01:19.235Z,3.20
2018-04-22T15:03:47.176Z,3.30
2018-04-22T15:06:18.442Z,3.20
2018-04-22T15:11:51.917Z,2.90
2018-04-22T15:14:20.125Z,3.55
2018-04-22T15:19:49.941Z,3.15
2018-04-22T15:22:19.464Z,3.53
2018-04-22T15:24:50.370Z,3.03
2018-04-22T15:27:20.423Z,3.30
2018-04-22T15:29:50.419Z,3.22
2018-04-22T15:32:20.976Z,3.53
2018-04-22T15:34:49.682Z,3.12
2018-04-22T15:37:19.274Z,3.30
2018-04-22T15:39:49.833Z,3.30
2018-04-22T15:42:17.655Z,3.30
2018-04-22T15:44:48.493Z,3.37
2018-04-22T15:50:19.743Z,3.07
2018-04-22T15:52:51.330Z,3.08
2018-04-22T15:55:19.919Z,2.90
2018-04-22T15:57:50.875Z,3.00
2018-04-22T16:00:19.287Z,2.87
2018-04-22T16:02:50.472Z,2.95
2018-04-22T16:05:19.790Z,3.05
2018-04-22T16:10:51.275Z,3.42
2018-04-22T16:13:20.331Z,3.30
2018-04-22T16:15:50.377Z,3.37
2018-04-22T16:18:19.880Z,3.40
2018-04-22T16:20:51.140Z,3.00
2018-04-22T16:23:20.014Z,3.30
2018-04-22T16:25:49.706Z,3.37
2018-04-22T16:28:20.930Z,3.30
2018-04-22T16:30:49.615Z,3.00
2018-04-22T16:33:21.010Z,3.22
2018-04-22T16:38:50.689Z,3.47
2018-04-22T16:41:20.627Z,3.30
2018-04-22T16:48:41.986Z,3.15
2018-04-22T16:51:28.055Z,3.27
2018-04-22T16:54:18.334Z,3.45
2018-04-22T16:56:50.559Z,3.33
2018-04-22T16:59:20.767Z,3.62
2018-04-22T17:04:50.884Z,3.00
2018-04-22T17:07:20.320Z,3.50
2018-04-22T17:12:52.183Z,3.62
2018-04-22T17:15:20.881Z,3.35
2018-04-22T17:17:52.044Z,3.45
2018-04-22T17:20:20.456Z,3.33
2018-04-22T17:28:52.006Z,3.67
2018-04-22T17:31:20.226Z,4.70
2018-04-22T17:33:51.295Z,3.90
2018-04-22T17:36:21.531Z,3.70
2018-04-22T17:38:53.147Z,3.55
2018-04-22T17:41:20.661Z,3.50
2018-04-22T17:52:20.381Z,3.40
2018-04-22T17:54:49.655Z,9.87
2018-04-22T17:57:37.862Z,4.70
2018-04-22T18:02:50.779Z,4.03
2018-04-22T18:08:35.736Z,3.43
2018-04-22T18:14:05.960Z,6.28
2018-04-22T18:19:31.952Z,3.10
2018-04-22T18:25:02.662Z,3.17
2018-04-22T18:27:49.698Z,3.00
2018-04-22T18:30:20.708Z,3.30
2018-04-22T18:32:51.534Z,3.22
2018-04-22T18:35:20.006Z,2.70
2018-04-22T18:37:51.600Z,3.40
2018-04-22T18:43:19.533Z,3.97
2018-04-22T18:48:50.071Z,2.97
2018-04-22T18:51:21.042Z,3.10
2018-04-22T18:53:50.317Z,3.10
2018-04-22T18:56:19.861Z,3.10
2018-04-22T18:58:51.382Z,3.35
2018-04-22T19:01:20.542Z,3.40
2018-04-22T19:03:51.082Z,3.20
2018-04-22T19:06:19.765Z,3.10
2018-04-22T19:08:50.001Z,3.30
2018-04-22T19:11:20.876Z,2.97
2018-04-22T19:13:49.662Z,3.22
2018-04-22T19:16:20.834Z,3.03
2018-04-22T19:18:50.733Z,3.35
2018-04-22T19:21:20.959Z,4.10
2018-04-22T19:26:52.424Z,2.90
2018-04-22T19:29:20.032Z,9.63
2018-04-22T19:34:50.750Z,4.78
2018-04-22T19:37:32.893Z,3.83
2018-04-22T19:43:19.607Z,3.63
2018-04-22T19:45:50.589Z,4.00
2018-04-22T20:06:27.018Z,3.40
2018-04-22T20:08:54.742Z,3.30
2018-04-22T20:38:32.389Z,3.78
2018-04-22T20:41:19.796Z,4.60
2018-04-22T20:43:48.122Z,3.40
2018-04-22T20:49:17.970Z,3.95
2018-04-22T20:51:45.534Z,3.83
2018-04-22T20:54:22.700Z,3.90
2018-04-22T21:02:40.181Z,3.10
2018-04-22T21:05:08.092Z,3.33
2018-04-22T21:10:19.792Z,3.60
2018-04-22T21:12:47.723Z,3.55
2018-04-22T21:15:22.056Z,3.58
2018-04-22T21:17:54.251Z,3.30
2018-04-22T21:20:21.758Z,3.33
2018-04-22T21:22:49.400Z,3.62
2018-04-22T21:25:16.903Z,3.90
2018-04-22T21:30:39.204Z,3.28
2018-04-22T21:33:31.260Z,3.58
2018-04-22T21:35:58.881Z,3.53
2018-04-22T21:38:26.431Z,3.40
2018-04-22T21:40:57.900Z,3.30
2018-04-22T21:43:25.423Z,3.67
2018-04-22T21:45:52.959Z,3.40
2018-04-22T21:48:20.554Z,3.22
2018-04-22T21:50:48.136Z,3.20
2018-04-22T21:53:29.661Z,3.53
2018-04-22T21:56:10.976Z,3.53
2018-04-22T21:58:38.844Z,3.20
2018-04-22T22:03:55.091Z,3.25
2018-04-22T22:06:23.375Z,3.03
2018-04-22T22:08:51.652Z,3.30
2018-04-22T22:11:19.242Z,3.30
2018-04-22T22:13:47.527Z,3.20
2018-04-22T22:19:05.102Z,3.22
2018-04-22T22:21:33.476Z,3.10
2018-04-22T22:24:01.032Z,3.67
2018-04-22T22:26:28.572Z,3.58
2018-04-22T22:31:50.049Z,3.28
2018-04-22T22:34:17.597Z,3.00
2018-04-22T22:36:45.110Z,3.37
2018-04-22T22:39:13.051Z,3.10
2018-04-22T22:41:40.578Z,3.50
2018-04-22T22:44:08.950Z,3.05
2018-04-22T22:46:36.538Z,3.10
2018-04-22T22:49:04.101Z,3.03
2018-04-22T22:51:32.476Z,3.08
2018-04-22T22:54:00.915Z,3.20
2018-04-22T22:56:28.433Z,2.80
2018-04-22T22:58:55.926Z,3.22
2018-04-22T23:01:24.736Z,3.35
2018-04-22T23:03:59.571Z,3.35
2018-04-22T23:06:27.867Z,3.40
2018-04-22T23:08:58.375Z,3.33
2018-04-22T23:11:25.957Z,3.55
2018-04-22T23:14:00.419Z,3.42
2018-04-22T23:16:28.743Z,3.50
2018-04-22T23:19:01.130Z,3.10
2018-04-22T23:21:30.305Z,3.28
2018-04-22T23:23:57.872Z,3.30
2018-04-22T23:26:25.502Z,3.80
2018-04-22T23:28:53.045Z,3.47
2018-04-22T23:31:39.686Z,3.30
2018-04-22T23:34:08.236Z,3.58
2018-04-22T23:36:35.743Z,3.15
2018-04-22T23:39:03.260Z,3.40
2018-04-22T23:41:35.827Z,3.63
2018-04-22T23:44:03.458Z,3.40
2018-04-22T23:46:31.088Z,3.37
2018-04-22T23:49:00.644Z,3.10
2018-04-22T23:51:29.071Z,3.40
2018-04-22T23:53:56.703Z,3.28
2018-04-22T23:56:37.474Z,3.40
2018-04-22T23:59:04.994Z,3.65
